Time;durP1;ratioP1;P1;durP2;ratioP2;P2;SDS_P1;SDS_P2;PMS_P1;PMS_P2;Temp;Humidity;BMP_temperature;BMP_pressure;BME280_temperature;BME280_humidity;BME280_pressure;Samples;Min_cycle;Max_cycle;Signal;HPM_P1;HPM_P2
2022/01/02 00:04:22;;;;;;;16.33;8.70;;;;;;;8.33;100.00;95462.69;10438255;28;20022;-78
2022/01/02 00:09:37;;;;;;;12.63;7.63;;;;;;;8.45;100.00;95475.22;10429255;28;20086;-77
2022/01/02 00:14:46;;;;;;;13.45;8.02;;;;;;;8.66;100.00;95471.81;10418926;28;20060;-77
2022/01/02 00:19:52;;;;;;;15.40;8.70;;;;;;;8.71;100.00;95465.75;10409589;28;20525;-77
2022/01/02 00:24:53;;;;;;;13.95;7.60;;;;;;;8.75;100.00;95476.78;10424398;28;20601;-79
2022/01/02 00:29:55;;;;;;;12.52;8.40;;;;;;;8.82;100.00;95475.59;10449219;28;20028;-77
2022/01/02 00:34:57;;;;;;;13.82;8.68;;;;;;;8.71;100.00;95463.88;10427894;28;20045;-80
2022/01/02 00:39:57;;;;;;;15.73;9.07;;;;;;;8.53;100.00;95467.59;10427450;28;20032;-82
2022/01/02 00:45:27;;;;;;;15.70;9.48;;;;;;;8.71;100.00;95471.91;10393537;28;20494;-73
2022/01/02 00:50:33;;;;;;;16.20;8.68;;;;;;;8.74;100.00;95472.50;10426513;28;20522;-79
2022/01/02 00:55:34;;;;;;;15.27;10.07;;;;;;;8.78;100.00;95466.41;10449093;28;20081;-75
2022/01/02 01:00:35;;;;;;;14.98;8.43;;;;;;;8.63;100.00;95472.31;10432100;28;20482;-76
2022/01/02 01:05:39;;;;;;;20.30;9.90;;;;;;;8.80;100.00;95482.25;10452105;28;20109;-77
2022/01/02 01:10:43;;;;;;;14.68;7.75;;;;;;;8.82;100.00;95475.59;10416915;28;20167;-79
2022/01/02 01:15:46;;;;;;;15.73;7.82;;;;;;;8.66;100.00;95477.19;10433428;28;20487;-75
2022/01/02 01:20:51;;;;;;;12.55;7.75;;;;;;;8.76;100.00;95479.22;10452286;28;20041;-74
2022/01/02 01:25:51;;;;;;;11.40;6.57;;;;;;;8.93;100.00;95476.56;10418418;28;20470;-77
2022/01/02 01:30:52;;;;;;;13.13;7.40;;;;;;;8.94;100.00;95472.00;10432249;28;20051;-78
2022/01/02 01:35:52;;;;;;;11.05;6.93;;;;;;;8.92;100.00;95472.25;10450824;28;20069;-72
2022/01/02 01:41:30;;;;;;;13.82;7.70;;;;;;;9.04;100.00;95472.97;10436091;28;20029;-80
2022/01/02 01:46:31;;;;;;;13.00;7.20;;;;;;;9.10;100.00;95475.72;10431915;28;20129;-74
2022/01/02 01:51:31;;;;;;;11.77;7.28;;;;;;;9.13;100.00;95480.63;10431024;28;20029;-75
2022/01/02 01:56:32;;;;;;;11.60;7.13;;;;;;;9.17;100.00;95484.44;10435122;28;20025;-70
2022/01/02 02:01:33;;;;;;;10.75;6.53;;;;;;;9.26;100.00;95471.41;10453463;28;20032;-75
2022/01/02 02:06:41;;;;;;;8.68;6.22;;;;;;;9.21;100.00;95464.13;10435003;28;20025;-68
2022/01/02 02:11:42;;;;;;;13.27;6.82;;;;;;;9.15;100.00;95465.09;10461644;28;20071;-75
2022/01/02 02:16:43;;;;;;;13.05;6.50;;;;;;;9.21;100.00;95461.44;10438098;28;20056;-76
2022/01/02 02:21:44;;;;;;;9.15;6.18;;;;;;;9.28;100.00;95461.22;10410013;28;20421;-74
2022/01/02 02:26:44;;;;;;;14.02;7.25;;;;;;;9.21;100.00;95470.28;10432255;28;20032;-76
2022/01/02 02:31:45;;;;;;;14.05;7.05;;;;;;;9.24;100.00;95471.66;10431076;28;20033;-75
2022/01/02 02:36:46;;;;;;;12.50;6.60;;;;;;;9.17;100.00;95463.78;10433439;28;20057;-71
2022/01/02 02:41:48;;;;;;;16.33;6.82;;;;;;;9.29;100.00;95474.41;10429367;28;20037;-77
2022/01/02 02:52:17;;;;;;;11.93;7.35;;;;;;;9.19;100.00;95471.56;10434237;28;20037;-80
2022/01/02 02:57:19;;;;;;;9.75;6.72;;;;;;;9.20;100.00;95478.56;10430987;28;20501;-78
2022/01/02 03:02:20;;;;;;;10.65;6.47;;;;;;;9.14;100.00;95477.69;10428457;28;20025;-73
2022/01/02 03:07:20;;;;;;;13.73;7.38;;;;;;;9.15;100.00;95481.16;10430339;28;20028;-79
2022/01/02 03:12:21;;;;;;;12.38;6.90;;;;;;;9.14;100.00;95492.94;10410403;28;20032;-79
2022/01/02 03:17:21;;;;;;;10.95;7.57;;;;;;;9.11;100.00;95491.59;10427665;28;20489;-81
2022/01/02 03:22:22;;;;;;;10.23;6.43;;;;;;;9.10;100.00;95502.53;10427026;28;20029;-76
2022/01/02 03:27:22;;;;;;;14.73;7.68;;;;;;;9.10;100.00;95497.19;10426721;28;20025;-75
2022/01/02 03:32:22;;;;;;;14.00;7.50;;;;;;;9.18;100.00;95494.09;10456225;28;20496;-75
2022/01/02 03:37:28;;;;;;;12.52;7.80;;;;;;;9.21;100.00;95490.94;10427648;28;20131;-80
2022/01/02 03:42:28;;;;;;;11.05;7.22;;;;;;;9.21;100.00;95486.38;10425135;28;20025;-77
2022/01/02 03:47:29;;;;;;;13.10;6.80;;;;;;;9.18;100.00;95478.81;10426900;28;20446;-78
2022/01/02 03:52:30;;;;;;;12.10;7.22;;;;;;;9.16;100.00;95482.81;10428244;28;20036;-79
2022/01/02 03:57:31;;;;;;;9.57;6.32;;;;;;;9.09;100.00;95491.00;10412582;28;20033;-81
2022/01/02 04:02:31;;;;;;;11.80;7.20;;;;;;;9.02;100.00;95485.81;10424931;28;20410;-76
2022/01/02 04:07:32;;;;;;;11.65;6.28;;;;;;;8.83;100.00;95498.66;10410179;28;20021;-75
2022/01/02 04:12:33;;;;;;;10.40;6.20;;;;;;;8.67;100.00;95502.94;10427283;28;20170;-82
2022/01/02 04:17:34;;;;;;;13.27;6.75;;;;;;;8.62;100.00;95508.19;10433592;28;20492;-75
2022/01/02 04:22:35;;;;;;;10.93;7.50;;;;;;;8.59;100.00;95515.91;10452077;28;20032;-77
2022/01/02 04:27:36;;;;;;;14.25;7.72;;;;;;;8.59;100.00;95522.09;10428835;28;20029;-78
2022/01/02 04:32:37;;;;;;;12.60;7.32;;;;;;;8.59;100.00;95527.44;10434661;28;20036;-81
2022/01/02 04:37:39;;;;;;;11.27;7.57;;;;;;;8.66;100.00;95527.28;10428230;28;20060;-80
2022/01/02 04:42:39;;;;;;;14.80;7.53;;;;;;;8.65;100.00;95521.13;10429060;28;20106;-78
2022/01/02 04:47:40;;;;;;;10.25;6.47;;;;;;;8.77;100.00;95525.63;10408741;28;20044;-75
2022/01/02 04:52:40;;;;;;;12.38;7.32;;;;;;;8.77;100.00;95529.09;10425871;28;20025;-75
2022/01/02 04:57:41;;;;;;;12.77;6.88;;;;;;;8.84;100.00;95531.63;10424553;28;20422;-77
2022/01/02 05:02:41;;;;;;;11.25;7.32;;;;;;;8.82;100.00;95539.91;10425776;28;20017;-82
2022/01/02 05:07:42;;;;;;;11.23;7.45;;;;;;;8.83;100.00;95538.03;10408484;28;20017;-76
2022/01/02 05:12:42;;;;;;;11.35;7.88;;;;;;;8.87;100.00;95539.19;10425672;28;20033;-76
2022/01/02 05:17:45;;;;;;;10.68;6.93;;;;;;;8.91;100.00;95536.84;10442332;28;20057;-81
2022/01/02 05:22:45;;;;;;;12.98;7.50;;;;;;;8.98;100.00;95535.59;10424699;28;20017;-81
2022/01/02 05:27:45;;;;;;;16.35;7.82;;;;;;;9.01;100.00;95542.34;10407721;28;20518;-76
2022/01/02 05:32:46;;;;;;;15.40;8.38;;;;;;;9.07;100.00;95542.19;10423511;28;20029;-74
2022/01/02 05:37:57;;;;;;;12.10;8.10;;;;;;;8.79;100.00;95536.88;10431995;28;20056;-80
2022/01/02 05:42:59;;;;;;;20.13;8.43;;;;;;;8.78;100.00;95552.16;10434037;28;20426;-78
2022/01/02 05:48:05;;;;;;;17.55;7.20;;;;;;;8.83;100.00;95543.41;10431661;28;20505;-79
2022/01/02 05:53:06;;;;;;;15.07;7.53;;;;;;;8.92;100.00;95550.00;10433901;28;20040;-80
2022/01/02 05:58:06;;;;;;;15.00;6.80;;;;;;;8.94;100.00;95552.44;10434235;28;20056;-80
2022/01/02 06:03:08;;;;;;;12.88;6.32;;;;;;;9.02;100.00;95538.63;10452449;28;20021;-80
2022/01/02 06:08:09;;;;;;;10.73;6.75;;;;;;;8.88;100.00;95544.28;10453720;28;20214;-79
2022/01/02 06:13:09;;;;;;;11.63;7.07;;;;;;;8.95;100.00;95549.50;10434559;28;20094;-76
2022/01/02 06:18:10;;;;;;;8.95;6.50;;;;;;;8.97;100.00;95558.13;10434344;28;20028;-76
2022/01/02 06:23:10;;;;;;;10.00;6.75;;;;;;;9.03;100.00;95565.19;10432168;28;20025;-75
2022/01/02 06:28:13;;;;;;;13.73;6.85;;;;;;;9.07;100.00;95569.03;10434029;28;20024;-78
2022/01/02 06:33:13;;;;;;;30.13;15.02;;;;;;;9.04;100.00;95574.88;10430368;28;20120;-80
2022/01/02 06:38:17;;;;;;;9.73;6.78;;;;;;;9.19;100.00;95565.44;10420010;28;20563;-81
2022/01/02 06:43:21;;;;;;;13.10;6.88;;;;;;;9.27;100.00;95573.09;10465603;28;20041;-73
2022/01/02 06:48:21;;;;;;;11.10;6.22;;;;;;;9.33;100.00;95582.84;10431610;28;20123;-78
2022/01/02 06:53:22;;;;;;;12.05;6.13;;;;;;;9.15;100.00;95596.50;10430913;28;20031;-78
2022/01/02 06:58:22;;;;;;;11.00;6.35;;;;;;;9.24;100.00;95597.72;10453287;28;20029;-77
2022/01/02 07:03:27;;;;;;;10.45;6.97;;;;;;;9.26;100.00;95600.16;10427740;28;20396;-78
2022/01/02 07:08:28;;;;;;;14.55;5.97;;;;;;;9.42;100.00;95607.41;10427035;28;20712;-80
2022/01/02 07:13:30;;;;;;;9.07;6.28;;;;;;;9.47;100.00;95612.03;10427459;28;20094;-79
2022/01/02 07:18:30;;;;;;;7.90;5.28;;;;;;;9.52;100.00;95612.13;10426395;28;20029;-75
2022/01/02 07:23:31;;;;;;;8.77;5.37;;;;;;;9.62;100.00;95616.84;10428102;28;20025;-76
2022/01/02 07:28:33;;;;;;;11.73;5.30;;;;;;;9.88;100.00;95620.72;10427555;28;20294;-73
2022/01/02 07:33:33;;;;;;;10.05;5.05;;;;;;;9.74;100.00;95631.78;10426429;28;20077;-75
2022/01/02 07:38:34;;;;;;;12.23;5.35;;;;;;;9.78;100.00;95632.09;10425281;28;20052;-74
2022/01/02 07:43:34;;;;;;;7.43;5.18;;;;;;;10.04;100.00;95627.91;10426235;28;20100;-78
2022/01/02 07:48:35;;;;;;;10.07;6.13;;;;;;;9.83;100.00;95624.13;10409042;28;20147;-78
2022/01/02 07:53:35;;;;;;;13.18;7.28;;;;;;;9.47;100.00;95620.88;10424781;28;20511;-76
2022/01/02 07:58:36;;;;;;;10.35;5.78;;;;;;;9.50;100.00;95614.22;10442757;28;20059;-75
2022/01/02 08:03:36;;;;;;;10.00;6.07;;;;;;;9.58;100.00;95617.28;10442965;28;20025;-77
2022/01/02 08:08:36;;;;;;;10.20;5.60;;;;;;;9.16;100.00;95622.25;10407228;28;20033;-78
2022/01/02 08:13:37;;;;;;;9.50;6.25;;;;;;;8.99;100.00;95624.91;10441689;28;20029;-74
2022/01/02 08:18:38;;;;;;;10.57;6.00;;;;;;;9.22;100.00;95630.16;10424319;28;20120;-73
2022/01/02 08:23:42;;;;;;;10.05;5.20;;;;;;;8.87;100.00;95633.00;10424455;28;20406;-78
2022/01/02 08:28:42;;;;;;;12.02;6.85;;;;;;;9.04;100.00;95638.41;10424169;28;20106;-73
2022/01/02 08:33:43;;;;;;;10.93;6.15;;;;;;;9.17;100.00;95626.56;10408343;28;20096;-78
2022/01/02 08:38:46;;;;;;;9.48;5.38;;;;;;;9.15;100.00;95628.66;10441286;28;20057;-74
2022/01/02 08:43:46;;;;;;;8.27;5.95;;;;;;;9.02;100.00;95627.91;10424289;28;20122;-81
2022/01/02 08:48:47;;;;;;;6.95;5.00;;;;;;;9.26;100.00;95625.09;10424163;28;20032;-74
2022/01/02 08:53:48;;;;;;;9.57;5.45;;;;;;;9.95;100.00;95632.09;10422578;28;20028;-75
2022/01/02 08:58:48;;;;;;;7.40;4.22;;;;;;;11.24;100.00;95620.97;10423858;28;20020;-74
2022/01/02 09:03:49;;;;;;;9.07;4.47;;;;;;;12.28;100.00;95617.16;10422262;28;20024;-73
2022/01/02 09:08:49;;;;;;;4.57;3.50;;;;;;;12.36;100.00;95611.25;10440818;28;20041;-73
2022/01/02 09:13:50;;;;;;;4.80;3.30;;;;;;;12.27;100.00;95615.53;10431378;28;20109;-75
2022/01/02 09:18:50;;;;;;;5.43;4.18;;;;;;;12.04;100.00;95611.34;10431288;28;20279;-73
2022/01/02 09:23:51;;;;;;;5.47;3.53;;;;;;;12.17;100.00;95602.81;10428800;28;20032;-74
2022/01/02 09:28:51;;;;;;;6.80;3.92;;;;;;;12.71;100.00;95590.91;10448094;28;20033;-75
2022/01/02 09:33:52;;;;;;;7.57;4.20;;;;;;;12.81;100.00;95588.25;10429331;28;20029;-75
2022/01/02 09:38:54;;;;;;;5.33;3.60;;;;;;;13.74;100.00;95572.09;10430778;28;20052;-80
2022/01/02 09:43:55;;;;;;;8.52;4.47;;;;;;;14.11;100.00;95560.16;10446997;28;20279;-81
2022/01/02 09:48:55;;;;;;;4.78;3.00;;;;;;;15.17;87.59;95552.88;10446710;28;20090;-78
2022/01/02 09:53:56;;;;;;;4.32;2.80;;;;;;;16.32;77.00;95543.41;10448147;28;20033;-72
2022/01/02 09:58:56;;;;;;;3.67;2.55;;;;;;;17.98;60.00;95531.72;10448466;28;20593;-71
2022/01/02 10:03:58;;;;;;;4.23;2.83;;;;;;;19.79;53.75;95530.22;10448168;28;20020;-75
2022/01/02 10:09:00;;;;;;;4.97;2.55;;;;;;;22.31;44.85;95520.94;10447768;28;20275;-73
2022/01/02 10:14:02;;;;;;;6.10;2.28;;;;;;;23.80;40.47;95522.63;10446059;28;20033;-81
2022/01/02 10:19:18;;;;;;;2.95;1.73;;;;;;;25.12;37.65;95519.03;10446493;28;20033;-83
2022/01/02 10:24:21;;;;;;;3.92;2.00;;;;;;;26.00;35.48;95504.59;10445095;28;20029;-75
2022/01/02 10:29:22;;;;;;;4.10;1.65;;;;;;;25.29;35.11;95499.50;10446704;28;20025;-77
2022/01/02 10:34:31;;;;;;;3.53;2.07;;;;;;;25.76;35.31;95487.88;10444921;28;20098;-75
2022/01/02 10:39:32;;;;;;;4.25;1.90;;;;;;;25.68;35.52;95482.53;10445753;28;20288;-79
2022/01/02 10:44:34;;;;;;;6.60;2.13;;;;;;;25.91;34.56;95471.72;10446829;28;20025;-76
2022/01/02 10:50:04;;;;;;;4.43;2.20;;;;;;;26.26;32.98;95471.03;10444797;28;20438;-73
2022/01/02 10:55:14;;;;;;;3.33;2.22;;;;;;;22.48;38.03;95470.75;10444720;28;20247;-73
2022/01/02 11:00:20;;;;;;;4.22;2.45;;;;;;;20.07;43.59;95478.19;10446304;28;20032;-76
2022/01/02 11:05:22;;;;;;;3.75;2.33;;;;;;;18.82;46.68;95475.28;10460580;28;20487;-71
2022/01/02 11:10:24;;;;;;;4.50;2.80;;;;;;;19.04;49.66;95466.38;10444952;28;20128;-74
2022/01/02 11:15:27;;;;;;;2.95;2.10;;;;;;;21.35;43.58;95456.34;10444126;28;20419;-75
2022/01/02 11:20:32;;;;;;;3.17;2.00;;;;;;;22.94;39.66;95438.88;10444451;28;20090;-77
2022/01/02 11:25:41;;;;;;;2.38;1.80;;;;;;;23.87;37.41;95435.03;10445645;28;20029;-77
2022/01/02 11:30:42;;;;;;;2.80;1.60;;;;;;;25.46;35.57;95426.09;10444458;28;20028;-78
2022/01/02 11:35:48;;;;;;;2.60;1.48;;;;;;;26.10;33.91;95425.00;10449018;28;20052;-81
2022/01/02 11:40:56;;;;;;;7.43;1.65;;;;;;;27.47;32.26;95416.16;10484202;28;20058;-73
2022/01/02 11:46:13;;;;;;;2.60;1.33;;;;;;;27.01;31.36;95400.25;10466830;28;20032;-75
2022/01/02 11:51:14;;;;;;;4.05;1.52;;;;;;;28.58;29.59;95410.88;10484752;28;20043;-75
2022/01/02 11:56:32;;;;;;;2.47;1.67;;;;;;;27.84;29.86;95401.00;10467081;28;20039;-75
2022/01/02 12:01:49;;;;;;;2.67;1.75;;;;;;;26.13;32.88;95397.91;10465913;28;20278;-79
2022/01/02 12:06:52;;;;;;;;;;;;;;;22.36;38.39;95403.81;10483755;28;20030;-82
2022/01/02 12:11:59;;;;;;;3.83;2.13;;;;;;;19.62;44.08;95400.00;10466009;28;19909;-83
2022/01/02 12:17:11;;;;;;;3.23;2.77;;;;;;;16.87;54.70;95399.06;10465787;28;20029;-76
2022/01/02 12:22:15;;;;;;;4.57;2.78;;;;;;;15.82;67.56;95400.84;10483431;28;20039;-75
2022/01/02 12:27:16;;;;;;;5.72;2.88;;;;;;;15.03;74.24;95406.53;10482779;28;20067;-75
2022/01/02 12:32:21;;;;;;;7.03;2.53;;;;;;;14.72;77.85;95395.16;10482208;28;20185;-74
2022/01/02 12:37:28;;;;;;;5.40;3.08;;;;;;;14.47;81.80;95388.81;10449154;28;20063;-79
2022/01/02 12:42:30;;;;;;;4.57;2.95;;;;;;;14.19;88.05;95385.75;10449436;28;20419;-78
2022/01/02 12:47:30;;;;;;;4.68;2.60;;;;;;;13.85;91.70;95389.97;10472476;28;20032;-78
2022/01/02 12:52:31;;;;;;;4.05;2.72;;;;;;;13.65;93.41;95384.69;10473729;28;20047;-79
2022/01/02 12:57:31;;;;;;;6.68;3.90;;;;;;;13.55;96.82;95393.63;10472517;28;20024;-74
2022/01/02 13:02:31;;;;;;;3.40;2.47;;;;;;;13.53;96.97;95393.09;10457310;28;20505;-75
2022/01/02 13:07:37;;;;;;;4.15;3.10;;;;;;;13.46;97.24;95382.56;10456253;28;20282;-77
2022/01/02 13:12:38;;;;;;;4.72;2.95;;;;;;;13.42;96.76;95391.50;10455812;28;20028;-73
2022/01/02 13:17:42;;;;;;;11.60;3.42;;;;;;;13.29;98.92;95382.06;10490942;28;20031;-73
2022/01/02 13:22:50;;;;;;;4.00;2.65;;;;;;;12.91;100.00;95381.59;10472256;28;20031;-74
2022/01/02 13:27:54;;;;;;;5.93;3.35;;;;;;;12.90;100.00;95385.38;10472055;28;20429;-78
2022/01/02 13:32:55;;;;;;;5.72;3.03;;;;;;;12.83;100.00;95377.56;10471518;28;20090;-75
2022/01/02 13:37:59;;;;;;;5.32;3.33;;;;;;;12.71;100.00;95387.81;10455304;28;20090;-77
2022/01/02 13:43:21;;;;;;;5.50;3.17;;;;;;;12.54;100.00;95380.78;10487660;28;20378;-71
2022/01/02 13:48:28;;;;;;;4.95;3.65;;;;;;;12.46;100.00;95371.38;10490626;28;20103;-79
2022/01/02 13:53:33;;;;;;;5.82;3.45;;;;;;;12.12;100.00;95366.47;10470952;28;20365;-79
2022/01/02 13:58:45;;;;;;;7.25;3.83;;;;;;;11.96;100.00;95362.16;10489224;28;20024;-72
2022/01/02 14:03:47;;;;;;;7.93;3.63;;;;;;;11.85;100.00;95361.28;10489485;28;20793;-77
2022/01/02 14:08:49;;;;;;;6.55;3.35;;;;;;;11.62;100.00;95370.63;10470502;28;20177;-75
2022/01/02 14:13:50;;;;;;;8.70;3.88;;;;;;;11.52;100.00;95366.00;10487755;28;20152;-78
2022/01/02 14:18:51;;;;;;;7.07;3.90;;;;;;;11.38;100.00;95389.09;10470578;28;20025;-76
2022/01/02 14:23:51;;;;;;;4.40;3.80;;;;;;;11.19;100.00;95376.09;10470517;28;20588;-80
2022/01/02 14:28:57;;;;;;;8.02;4.70;;;;;;;11.13;100.00;95384.41;10488458;28;20289;-82
2022/01/02 14:33:59;;;;;;;9.82;5.07;;;;;;;10.77;100.00;95382.28;10486503;28;20025;-77
2022/01/02 14:39:00;;;;;;;6.68;4.55;;;;;;;10.75;100.00;95387.91;10485499;28;20040;-74
2022/01/02 14:44:01;;;;;;;6.15;3.97;;;;;;;10.57;100.00;95385.63;10469299;28;20024;-74
2022/01/02 14:49:02;;;;;;;7.10;4.72;;;;;;;10.46;100.00;95389.31;10487086;28;20426;-78
2022/01/02 14:54:05;;;;;;;9.85;5.20;;;;;;;10.35;100.00;95389.19;10466760;28;20052;-76
2022/01/02 14:59:10;;;;;;;7.43;4.60;;;;;;;10.34;100.00;95398.34;10469101;28;20075;-78
2022/01/02 15:04:11;;;;;;;7.80;4.60;;;;;;;10.34;100.00;95394.81;10486321;28;20112;-77
2022/01/02 15:09:12;;;;;;;11.02;4.78;;;;;;;10.07;100.00;95401.81;10484142;28;20023;-74
2022/01/02 15:14:12;;;;;;;9.65;5.40;;;;;;;9.74;100.00;95400.13;10486590;28;20035;-79
2022/01/02 15:19:16;;;;;;;9.55;5.47;;;;;;;9.44;100.00;95403.25;10490916;28;20150;-78
2022/01/02 15:24:16;;;;;;;11.07;5.65;;;;;;;9.30;100.00;95394.75;10483568;28;20143;-75
2022/01/02 15:29:17;;;;;;;12.43;6.05;;;;;;;9.26;100.00;95389.06;10483468;28;20029;-78
2022/01/02 15:34:18;;;;;;;19.75;8.48;;;;;;;9.08;100.00;95392.84;10467202;28;20032;-76
2022/01/02 15:39:19;;;;;;;18.67;9.75;;;;;;;8.95;100.00;95394.00;10467166;28;20057;-80
2022/01/02 15:44:19;;;;;;;20.52;9.00;;;;;;;8.64;100.00;95390.88;10467872;28;20035;-77
2022/01/02 15:49:20;;;;;;;19.20;10.45;;;;;;;8.58;100.00;95399.06;10464891;28;20042;-72
2022/01/02 15:54:21;;;;;;;19.60;11.27;;;;;;;8.54;100.00;95398.78;10466263;28;20036;-80
2022/01/02 15:59:21;;;;;;;25.33;11.93;;;;;;;8.43;100.00;95399.59;10466073;28;20024;-78
2022/01/02 16:04:22;;;;;;;30.08;11.50;;;;;;;8.30;100.00;95398.06;10436942;28;20630;-78
2022/01/02 16:09:22;;;;;;;18.50;10.95;;;;;;;8.18;100.00;95396.25;10423703;28;20502;-75
2022/01/02 16:14:23;;;;;;;21.30;9.90;;;;;;;8.10;100.00;95396.66;10424207;28;20025;-73
2022/01/02 16:19:23;;;;;;;22.60;11.27;;;;;;;8.01;100.00;95398.13;10424039;28;20025;-75
2022/01/02 16:24:25;;;;;;;23.23;9.45;;;;;;;7.84;100.00;95398.06;10390913;28;20411;-73
2022/01/02 16:29:27;;;;;;;28.20;12.35;;;;;;;7.87;100.00;95394.91;10423097;28;20537;-72
2022/01/02 16:34:30;;;;;;;27.20;11.65;;;;;;;7.70;100.00;95400.19;10388355;28;20064;-79
2022/01/02 16:39:31;;;;;;;23.23;11.75;;;;;;;7.60;100.00;95406.16;10385044;28;20045;-81
2022/01/02 16:44:33;;;;;;;24.92;11.27;;;;;;;7.57;100.00;95401.28;10402633;28;20427;-82
2022/01/02 16:49:33;;;;;;;28.73;11.77;;;;;;;7.47;100.00;95399.22;10396567;28;20048;-74
2022/01/02 16:54:34;;;;;;;20.80;10.18;;;;;;;7.35;100.00;95398.44;10425415;28;20033;-76
2022/01/02 16:59:35;;;;;;;20.35;10.60;;;;;;;7.24;100.00;95392.09;10427773;28;20028;-74
2022/01/02 17:04:35;;;;;;;20.05;11.88;;;;;;;7.19;100.00;95389.31;10424220;28;20036;-71
2022/01/02 17:09:36;;;;;;;23.35;10.82;;;;;;;7.23;100.00;95394.97;10443503;28;20090;-80
2022/01/02 17:14:37;;;;;;;18.27;10.00;;;;;;;7.12;100.00;95386.75;10411846;28;20040;-75
2022/01/02 17:19:37;;;;;;;21.27;11.35;;;;;;;7.04;100.00;95387.13;10423990;28;20040;-74
2022/01/02 17:24:38;;;;;;;24.35;11.75;;;;;;;7.00;100.00;95388.63;10441628;28;20051;-80
2022/01/02 17:29:39;;;;;;;30.17;12.98;;;;;;;6.98;100.00;95391.53;10439460;28;20029;-79
2022/01/02 17:34:39;;;;;;;30.15;12.80;;;;;;;6.99;100.00;95378.97;10424570;28;20543;-74
2022/01/02 17:39:40;;;;;;;31.30;14.13;;;;;;;6.87;100.00;95380.88;10388446;28;20053;-71
2022/01/02 17:44:40;;;;;;;31.63;12.93;;;;;;;6.74;100.00;95373.88;10404997;28;20082;-70
2022/01/02 17:49:42;;;;;;;34.63;14.93;;;;;;;6.62;100.00;95368.56;10412705;28;20626;-80
2022/01/02 17:54:43;;;;;;;38.90;15.32;;;;;;;6.56;100.00;95370.31;10404194;28;20410;-71
2022/01/02 17:59:43;;;;;;;34.88;15.68;;;;;;;6.39;100.00;95369.34;10403885;28;20044;-72
2022/01/02 18:04:43;;;;;;;28.92;14.57;;;;;;;6.32;100.00;95369.44;10404588;28;20116;-76
2022/01/02 18:09:48;;;;;;;40.33;18.98;;;;;;;6.19;100.00;95369.69;10403964;28;20608;-78
2022/01/02 18:14:49;;;;;;;44.20;14.32;;;;;;;6.21;100.00;95371.09;10403787;28;20028;-83
2022/01/02 18:19:49;;;;;;;36.55;15.98;;;;;;;6.09;100.00;95359.56;10404501;28;20029;-71
2022/01/02 18:24:54;;;;;;;28.40;14.35;;;;;;;5.98;100.00;95359.28;10410894;28;20022;-78
2022/01/02 18:29:54;;;;;;;35.60;13.25;;;;;;;5.98;100.00;95355.81;10386439;28;20049;-78
2022/01/02 18:34:57;;;;;;;35.05;14.70;;;;;;;5.92;100.00;95349.53;10385372;28;20029;-79
2022/01/02 18:39:57;;;;;;;36.13;16.30;;;;;;;5.96;100.00;95345.34;10404301;28;20633;-77
2022/01/02 18:44:58;;;;;;;34.28;16.35;;;;;;;5.94;100.00;95338.63;10385449;28;20068;-75
2022/01/02 18:49:58;;;;;;;29.77;14.60;;;;;;;5.91;100.00;95331.88;10369523;28;20022;-75
2022/01/02 18:54:58;;;;;;;45.17;18.30;;;;;;;5.79;100.00;95323.88;10404939;28;20025;-74
2022/01/02 18:59:59;;;;;;;45.35;20.20;;;;;;;5.68;100.00;95321.97;10386739;28;20145;-76
2022/01/02 19:04:59;;;;;;;47.97;18.50;;;;;;;5.56;100.00;95313.94;10405182;28;20026;-72
2022/01/02 19:10:00;;;;;;;40.45;18.98;;;;;;;5.67;100.00;95312.34;10368914;28;20055;-79
2022/01/02 19:15:01;;;;;;;39.88;19.90;;;;;;;5.60;100.00;95311.63;10384314;28;20021;-75
2022/01/02 19:20:04;;;;;;;26.90;12.20;;;;;;;5.47;100.00;95307.31;10384403;28;20415;-73
2022/01/02 19:25:06;;;;;;;23.73;11.80;;;;;;;5.37;100.00;95305.19;10424122;28;20033;-74
2022/01/02 19:30:08;;;;;;;21.65;11.00;;;;;;;5.44;100.00;95305.06;10406577;28;20083;-80
2022/01/02 19:35:11;;;;;;;23.38;11.90;;;;;;;5.33;100.00;95297.84;10437331;28;20387;-76
2022/01/02 19:40:13;;;;;;;26.60;11.98;;;;;;;5.22;100.00;95305.59;10418008;28;20051;-74
2022/01/02 19:45:13;;;;;;;20.40;10.77;;;;;;;5.23;100.00;95301.91;10399923;28;20154;-77
2022/01/02 19:50:14;;;;;;;20.73;10.10;;;;;;;5.12;100.00;95302.63;10385978;28;20509;-74
2022/01/02 19:55:16;;;;;;;21.02;10.60;;;;;;;5.12;100.00;95305.28;10401226;28;20027;-77
2022/01/02 20:00:19;;;;;;;17.85;10.30;;;;;;;5.07;100.00;95313.16;10400602;28;20127;-75
2022/01/02 20:05:19;;;;;;;20.02;9.93;;;;;;;5.12;100.00;95314.13;10402405;28;20143;-74
2022/01/02 20:10:20;;;;;;;17.27;9.88;;;;;;;4.88;100.00;95307.03;10412632;28;20104;-80
2022/01/02 20:15:20;;;;;;;22.33;11.35;;;;;;;4.80;100.00;95294.84;10370271;28;20037;-72
2022/01/02 20:20:23;;;;;;;21.88;11.40;;;;;;;4.68;100.00;95297.41;10411269;28;20127;-74
2022/01/02 20:25:28;;;;;;;20.15;10.93;;;;;;;4.64;100.00;95290.09;10424923;28;20181;-76
2022/01/02 20:30:28;;;;;;;21.38;10.70;;;;;;;4.54;100.00;95285.28;10422242;28;20039;-78
2022/01/02 20:35:29;;;;;;;22.60;10.43;;;;;;;4.61;100.00;95272.72;10398198;28;20064;-81
2022/01/02 20:40:30;;;;;;;19.35;9.32;;;;;;;4.54;100.00;95270.13;10387208;28;20040;-77
2022/01/02 20:45:30;;;;;;;26.42;11.32;;;;;;;4.39;100.00;95267.03;10406538;28;20176;-79
2022/01/02 20:50:31;;;;;;;24.65;12.98;;;;;;;4.42;100.00;95262.09;10401283;28;20123;-71
2022/01/02 20:55:32;;;;;;;30.02;13.68;;;;;;;4.28;100.00;95263.22;10406958;28;20029;-76
2022/01/02 21:00:34;;;;;;;30.67;14.93;;;;;;;4.21;100.00;95260.63;10414893;28;20102;-75
2022/01/02 21:05:37;;;;;;;29.40;15.10;;;;;;;4.11;100.00;95261.13;10400342;28;20091;-74
2022/01/02 21:10:38;;;;;;;29.67;13.05;;;;;;;4.20;100.00;95272.34;10404879;28;20148;-77
2022/01/02 21:15:40;;;;;;;30.45;14.70;;;;;;;4.13;100.00;95265.44;10407658;28;20029;-77
2022/01/02 21:20:44;;;;;;;41.33;17.67;;;;;;;3.92;100.00;95270.13;10389770;28;20033;-79
2022/01/02 21:25:47;;;;;;;37.13;18.92;;;;;;;3.91;100.00;95260.53;10430447;28;20040;-81
2022/01/02 21:30:49;;;;;;;43.45;21.65;;;;;;;3.87;100.00;95254.81;10410387;28;20426;-74
2022/01/02 21:35:50;;;;;;;47.50;22.40;;;;;;;3.88;100.00;95255.63;10388208;28;20439;-72
2022/01/02 21:40:50;;;;;;;48.20;24.30;;;;;;;3.90;100.00;95253.56;10406842;28;20029;-79
2022/01/02 21:45:51;;;;;;;49.05;22.58;;;;;;;3.98;100.00;95236.50;10413183;28;20063;-74
2022/01/02 21:50:51;;;;;;;41.90;21.40;;;;;;;3.83;100.00;95235.00;10407877;28;20460;-77
2022/01/02 21:55:52;;;;;;;46.53;21.90;;;;;;;3.92;100.00;95222.25;10372842;28;20021;-76
2022/01/02 22:00:53;;;;;;;43.75;19.70;;;;;;;4.00;100.00;95219.31;10408618;28;20035;-72
2022/01/02 22:06:03;;;;;;;37.50;20.23;;;;;;;4.00;100.00;95223.81;10405650;28;20026;-75
2022/01/02 22:11:04;;;;;;;42.20;20.65;;;;;;;3.99;100.00;95224.84;10403761;28;20587;-76
2022/01/02 22:16:05;;;;;;;39.13;17.67;;;;;;;3.85;100.00;95211.69;10404221;28;20486;-77
2022/01/02 22:21:06;;;;;;;42.38;19.60;;;;;;;3.92;100.00;95204.47;10431244;28;20028;-74
2022/01/02 22:26:07;;;;;;;52.45;20.92;;;;;;;3.73;100.00;95194.84;10429488;28;20036;-79
2022/01/02 22:31:10;;;;;;;40.40;18.85;;;;;;;3.71;100.00;95210.16;10407053;28;20052;-74
2022/01/02 22:36:11;;;;;;;40.53;21.50;;;;;;;3.76;100.00;95199.72;10404626;28;20478;-77
2022/01/02 22:41:11;;;;;;;33.88;19.52;;;;;;;3.71;100.00;95199.53;10405114;28;20033;-79
2022/01/02 22:46:14;;;;;;;41.80;20.25;;;;;;;3.68;100.00;95210.63;10402887;28;20043;-76
2022/01/02 22:51:16;;;;;;;35.65;18.13;;;;;;;3.59;100.00;95210.88;10403531;28;20104;-76
2022/01/02 22:56:20;;;;;;;44.33;17.25;;;;;;;3.55;100.00;95193.75;10402456;28;20488;-78
2022/01/02 23:01:21;;;;;;;37.83;18.60;;;;;;;3.45;100.00;95204.06;10403670;28;20041;-75
2022/01/02 23:06:23;;;;;;;32.65;16.02;;;;;;;3.41;100.00;95194.91;10386276;28;20022;-79
2022/01/02 23:11:25;;;;;;;36.30;17.95;;;;;;;3.34;100.00;95181.66;10387865;28;20036;-72
2022/01/02 23:16:34;;;;;;;31.77;18.25;;;;;;;3.46;100.00;95178.28;10402219;28;20025;-77